createdAt,value
2023-02-18T00:01:56.695Z,1.17
2023-02-18T00:04:29.558Z,1.33
2023-02-18T00:06:55.838Z,1.00
2023-02-18T00:15:18.562Z,0.33
2023-02-18T00:17:44.988Z,1.00
2023-02-18T00:20:20.621Z,1.67
2023-02-18T00:22:46.926Z,0.67
2023-02-18T00:25:22.594Z,0.83
2023-02-18T00:27:48.888Z,1.00
2023-02-18T00:30:15.282Z,0.67
2023-02-18T00:32:50.586Z,1.67
2023-02-18T00:35:16.914Z,1.67
2023-02-18T00:37:49.590Z,1.67
2023-02-18T00:40:15.909Z,0.67
2023-02-18T00:42:51.574Z,2.33
2023-02-18T00:45:17.889Z,0.00
2023-02-18T00:47:53.582Z,0.67
2023-02-18T00:50:22.677Z,0.67
2023-02-18T00:52:58.598Z,0.67
2023-02-18T00:55:27.712Z,1.00
2023-02-18T00:58:03.602Z,0.67
2023-02-18T01:00:32.707Z,0.67
2023-02-18T01:03:05.596Z,0.33
2023-02-18T01:05:34.683Z,0.67
2023-02-18T01:08:07.592Z,0.33
2023-02-18T01:10:36.694Z,0.67
2023-02-18T01:13:12.600Z,0.50
2023-02-18T01:15:41.701Z,0.00
2023-02-18T01:18:14.633Z,0.67
2023-02-18T01:20:40.925Z,1.00
2023-02-18T01:23:07.223Z,0.33
2023-02-18T01:25:42.596Z,0.67
2023-02-18T01:31:04.672Z,0.67
2023-02-18T01:33:33.809Z,0.67
2023-02-18T01:36:10.077Z,0.00
2023-02-18T01:38:39.352Z,1.00
2023-02-18T01:41:12.590Z,0.33
2023-02-18T01:43:38.871Z,0.00
2023-02-18T01:46:05.217Z,0.33
2023-02-18T01:48:39.482Z,0.00
2023-02-18T01:51:06.007Z,0.00
2023-02-18T01:53:41.612Z,0.17
2023-02-18T01:56:10.729Z,0.00
2023-02-18T02:01:40.633Z,0.00
2023-02-18T02:04:13.618Z,0.00
2023-02-18T02:06:39.919Z,0.00
2023-02-18T02:09:12.641Z,0.00
2023-02-18T02:11:41.758Z,0.00
2023-02-18T02:14:14.597Z,0.00
2023-02-18T02:16:43.694Z,0.00
2023-02-18T02:19:19.618Z,0.00
2023-02-18T02:21:45.892Z,0.33
2023-02-18T02:24:12.205Z,0.33
2023-02-18T02:26:44.603Z,0.00
2023-02-18T02:32:06.615Z,1.33
2023-02-18T02:34:32.952Z,0.00
2023-02-18T02:37:08.619Z,0.00
2023-02-18T02:39:34.936Z,0.67
2023-02-18T02:42:01.222Z,0.00
2023-02-18T02:44:36.631Z,0.83
2023-02-18T02:47:02.934Z,0.00
2023-02-18T02:49:38.632Z,0.00
2023-02-18T02:52:07.742Z,0.00
2023-02-18T02:54:40.715Z,0.00
2023-02-18T02:57:07.064Z,0.00
2023-02-18T03:02:39.702Z,0.50
2023-02-18T03:05:12.634Z,0.00
2023-02-18T03:07:38.917Z,0.00
2023-02-18T03:10:11.675Z,0.33
2023-02-18T03:12:37.980Z,0.00
2023-02-18T03:15:13.649Z,0.00
2023-02-18T03:17:42.755Z,0.00
2023-02-18T03:20:15.673Z,0.00
2023-02-18T03:22:44.793Z,1.00
2023-02-18T03:25:20.638Z,0.00
2023-02-18T03:27:46.943Z,0.00
2023-02-18T03:30:22.667Z,0.17
2023-02-18T03:32:48.998Z,0.00
2023-02-18T03:35:15.325Z,0.00
2023-02-18T03:37:47.652Z,0.00
2023-02-18T03:40:16.756Z,0.33
2023-02-18T03:42:49.654Z,0.00
2023-02-18T03:48:06.675Z,0.00
2023-02-18T03:50:32.962Z,0.00
2023-02-18T03:53:08.684Z,0.00
2023-02-18T03:55:35.005Z,0.00
2023-02-18T03:58:10.637Z,0.00
2023-02-18T04:03:30.650Z,0.00
2023-02-18T04:05:59.738Z,0.00
2023-02-18T04:08:32.660Z,0.00
2023-02-18T04:10:58.964Z,0.00
2023-02-18T04:19:21.680Z,0.00
2023-02-18T04:21:47.974Z,0.33
2023-02-18T04:24:20.639Z,0.00
2023-02-18T04:26:46.932Z,0.00
2023-02-18T04:29:13.227Z,1.00
2023-02-18T04:31:48.788Z,0.33
2023-02-18T04:34:15.170Z,0.00
2023-02-18T04:36:50.662Z,0.00
2023-02-18T04:39:16.989Z,0.33
2023-02-18T04:41:43.292Z,0.00
2023-02-18T04:44:15.709Z,0.00
2023-02-18T04:46:42.002Z,0.00
2023-02-18T04:49:14.666Z,0.00
2023-02-18T04:51:43.789Z,0.00
2023-02-18T04:54:16.669Z,0.33
2023-02-18T04:56:45.778Z,0.33
2023-02-18T05:05:06.692Z,0.00
2023-02-18T05:07:32.982Z,0.33
2023-02-18T05:10:08.687Z,0.00
2023-02-18T05:12:34.994Z,0.00
2023-02-18T05:15:10.721Z,0.33
2023-02-18T05:17:37.016Z,0.00
2023-02-18T05:20:03.357Z,0.00
2023-02-18T05:22:38.697Z,0.00
2023-02-18T05:25:05.012Z,0.00
2023-02-18T05:27:37.695Z,0.00
2023-02-18T05:30:04.051Z,0.67
2023-02-18T05:32:36.696Z,0.33
2023-02-18T05:35:03.000Z,0.00
2023-02-18T05:37:38.710Z,0.67
2023-02-18T05:40:07.833Z,0.00
2023-02-18T05:42:43.695Z,0.00
2023-02-18T05:45:10.024Z,0.00
2023-02-18T05:47:36.325Z,0.00
2023-02-18T05:50:08.719Z,0.00
2023-02-18T05:52:35.027Z,0.00
2023-02-18T05:55:07.699Z,0.00
2023-02-18T05:57:36.794Z,0.00
2023-02-18T06:00:09.696Z,0.00
2023-02-18T06:02:36.052Z,1.00
2023-02-18T06:05:11.720Z,0.00
2023-02-18T06:07:40.819Z,0.50
2023-02-18T06:10:13.725Z,0.00
2023-02-18T06:12:40.029Z,0.00
2023-02-18T06:15:06.338Z,0.00
2023-02-18T06:20:35.717Z,0.33
2023-02-18T06:23:02.010Z,0.33
2023-02-18T06:25:37.726Z,0.33
2023-02-18T06:28:04.072Z,1.00
2023-02-18T06:30:39.758Z,1.50
2023-02-18T06:33:06.105Z,1.67
2023-02-18T06:35:41.721Z,0.00
2023-02-18T06:38:08.234Z,2.33
2023-02-18T06:40:34.880Z,2.00
2023-02-18T06:43:07.736Z,1.67
2023-02-18T06:45:34.184Z,2.33
2023-02-18T06:51:00.731Z,3.00
2023-02-18T06:53:33.994Z,2.33
2023-02-18T06:56:03.395Z,2.50
2023-02-18T06:58:35.992Z,1.67
2023-02-18T07:01:05.622Z,0.83
2023-02-18T07:03:42.297Z,1.00
2023-02-18T07:06:09.262Z,4.00
2023-02-18T07:08:42.759Z,2.00
2023-02-18T07:11:09.072Z,0.33
2023-02-18T07:13:44.718Z,0.50
2023-02-18T07:16:13.844Z,0.33
2023-02-18T07:18:49.746Z,0.50
2023-02-18T07:21:18.868Z,1.00
2023-02-18T07:23:51.745Z,2.00
2023-02-18T07:26:18.078Z,0.67
2023-02-18T07:28:53.744Z,1.00
2023-02-18T07:31:20.185Z,1.33
2023-02-18T07:36:52.750Z,1.17
2023-02-18T07:39:25.776Z,3.00
2023-02-18T07:41:54.876Z,1.00
2023-02-18T07:44:30.758Z,1.33
2023-02-18T07:46:57.069Z,3.00
2023-02-18T07:49:23.389Z,0.67
2023-02-18T07:51:55.737Z,0.00
2023-02-18T07:54:22.051Z,1.00
2023-02-18T07:56:57.746Z,0.00
2023-02-18T07:59:26.825Z,0.67
2023-02-18T08:01:59.805Z,1.33
2023-02-18T08:04:28.926Z,1.00
2023-02-18T08:07:04.770Z,0.83
2023-02-18T08:09:33.861Z,1.00
2023-02-18T08:12:06.760Z,2.00
2023-02-18T08:14:35.878Z,1.00
2023-02-18T08:23:01.762Z,1.00
2023-02-18T08:25:30.877Z,2.00
2023-02-18T08:28:03.774Z,2.00
2023-02-18T08:30:30.161Z,1.00
2023-02-18T08:33:05.781Z,1.83
2023-02-18T08:35:34.889Z,1.00
2023-02-18T08:38:07.766Z,2.00
2023-02-18T08:40:34.076Z,1.33
2023-02-18T08:43:09.778Z,1.33
2023-02-18T08:45:38.944Z,0.50
2023-02-18T08:48:17.285Z,1.00
2023-02-18T08:50:48.095Z,3.00
2023-02-18T08:53:20.785Z,2.00
2023-02-18T08:55:47.106Z,2.00
2023-02-18T08:58:13.421Z,1.67
2023-02-18T09:00:45.789Z,1.00
2023-02-18T09:03:12.112Z,1.00
2023-02-18T09:05:38.432Z,3.00
2023-02-18T09:08:10.797Z,1.33
2023-02-18T09:10:37.091Z,2.00
2023-02-18T09:13:09.802Z,2.67
2023-02-18T09:15:38.951Z,1.50
2023-02-18T09:18:11.816Z,1.33
2023-02-18T09:20:38.133Z,2.67
2023-02-18T09:23:10.807Z,2.67
2023-02-18T09:25:37.137Z,2.33
2023-02-18T09:28:12.814Z,2.33
2023-02-18T09:30:42.026Z,1.00
2023-02-18T09:33:14.809Z,2.00
2023-02-18T09:35:41.147Z,3.00
2023-02-18T09:38:13.810Z,2.00
2023-02-18T09:40:42.947Z,2.33
2023-02-18T09:43:15.803Z,2.00
2023-02-18T09:45:42.148Z,3.00
2023-02-18T09:48:08.461Z,1.00
2023-02-18T09:53:37.818Z,1.67
2023-02-18T09:56:10.801Z,1.67
2023-02-18T09:58:37.124Z,1.00
2023-02-18T10:01:10.182Z,1.67
2023-02-18T10:03:36.703Z,2.00
2023-02-18T10:06:12.876Z,2.33
2023-02-18T10:08:42.040Z,1.00
2023-02-18T10:11:14.825Z,2.33
2023-02-18T10:13:41.127Z,2.00
2023-02-18T10:16:07.705Z,1.00
2023-02-18T10:18:40.814Z,1.67
2023-02-18T10:24:02.847Z,1.67
2023-02-18T10:26:31.978Z,2.33
2023-02-18T10:29:07.807Z,2.50
2023-02-18T10:31:34.231Z,1.00
2023-02-18T10:34:06.815Z,1.67
2023-02-18T10:36:35.940Z,1.67
2023-02-18T10:39:08.844Z,1.67
2023-02-18T10:41:37.954Z,1.83
2023-02-18T10:44:10.849Z,2.00
2023-02-18T10:46:37.206Z,1.67
2023-02-18T10:55:02.841Z,2.17
2023-02-18T10:57:29.139Z,1.33
2023-02-18T11:00:04.838Z,2.33
2023-02-18T11:02:31.175Z,3.67
2023-02-18T11:05:06.831Z,0.83
2023-02-18T11:07:35.956Z,2.00
2023-02-18T11:10:08.844Z,4.00
2023-02-18T11:12:35.192Z,3.33
2023-02-18T11:15:07.843Z,3.00
2023-02-18T11:17:34.177Z,2.67
2023-02-18T11:20:00.476Z,3.33
2023-02-18T11:22:32.842Z,4.67
2023-02-18T11:24:59.161Z,3.00
2023-02-18T11:27:31.868Z,3.67
2023-02-18T11:29:58.204Z,3.33
2023-02-18T11:32:30.840Z,4.00
2023-02-18T11:34:57.200Z,3.67
2023-02-18T11:37:29.857Z,4.00
2023-02-18T11:39:56.180Z,4.33
2023-02-18T11:42:28.837Z,3.00
2023-02-18T11:44:55.171Z,4.00
2023-02-18T11:47:27.840Z,5.00
2023-02-18T11:49:54.184Z,4.00
2023-02-18T11:52:27.138Z,3.00
2023-02-18T11:54:53.636Z,4.00
2023-02-18T11:57:26.869Z,3.00
2023-02-18T11:59:53.219Z,5.00
2023-02-18T12:02:25.861Z,4.00
2023-02-18T12:04:52.207Z,5.67
2023-02-18T12:10:19.862Z,4.00
2023-02-18T12:12:52.877Z,2.00
2023-02-18T12:15:19.257Z,4.00
2023-02-18T12:17:51.852Z,7.00
2023-02-18T12:20:18.190Z,6.00
2023-02-18T12:22:44.545Z,6.00
2023-02-18T12:25:17.886Z,5.33
2023-02-18T12:27:44.222Z,4.00
2023-02-18T12:30:16.915Z,5.67
2023-02-18T12:32:43.286Z,4.33
2023-02-18T12:35:15.882Z,4.00
2023-02-18T12:40:32.893Z,3.00
2023-02-18T12:42:59.248Z,5.33
2023-02-18T12:45:25.610Z,5.00
2023-02-18T12:47:58.882Z,5.33
2023-02-18T12:50:25.242Z,8.00
2023-02-18T12:55:51.891Z,4.00
2023-02-18T12:58:24.894Z,4.00
2023-02-18T13:00:51.265Z,5.67
2023-02-18T13:03:23.931Z,4.00
2023-02-18T13:05:50.272Z,3.00
2023-02-18T13:11:16.889Z,5.67
2023-02-18T13:13:49.901Z,4.67
2023-02-18T13:16:16.243Z,5.00
2023-02-18T13:18:42.578Z,6.67
2023-02-18T13:21:15.897Z,4.00
2023-02-18T13:23:42.209Z,4.00
2023-02-18T13:26:14.919Z,4.00
2023-02-18T13:28:41.248Z,3.00
2023-02-18T13:31:14.035Z,3.00
2023-02-18T13:33:40.442Z,4.00
2023-02-18T13:36:12.905Z,6.00
2023-02-18T13:41:29.882Z,6.00
2023-02-18T13:43:56.261Z,4.67
2023-02-18T13:46:22.661Z,5.00
2023-02-18T13:48:55.899Z,4.00
2023-02-18T13:51:22.228Z,3.00
2023-02-18T13:56:48.900Z,3.67
2023-02-18T13:59:21.917Z,4.33
2023-02-18T14:01:49.116Z,4.25
2023-02-18T14:04:21.903Z,6.00
2023-02-18T14:06:48.251Z,8.00
2023-02-18T14:09:20.910Z,5.00
2023-02-18T14:11:47.258Z,4.00
2023-02-18T14:14:19.926Z,6.00
2023-02-18T14:16:46.268Z,5.33
2023-02-18T14:19:19.915Z,4.25
2023-02-18T14:21:46.263Z,5.00
2023-02-18T14:27:13.918Z,6.00
2023-02-18T14:29:49.938Z,6.33
2023-02-18T14:32:16.362Z,6.67
2023-02-18T14:34:48.923Z,5.33
2023-02-18T14:37:15.306Z,6.00
2023-02-18T14:39:41.654Z,5.67
2023-02-18T14:42:14.923Z,3.33
2023-02-18T14:44:41.407Z,4.00
2023-02-18T14:47:13.930Z,5.67
2023-02-18T14:49:40.273Z,4.33
2023-02-18T14:52:12.943Z,5.00
2023-02-18T14:57:29.945Z,3.33
2023-02-18T14:59:56.259Z,3.33
2023-02-18T15:02:28.939Z,4.00
2023-02-18T15:04:55.264Z,3.67
2023-02-18T15:07:27.973Z,3.33
2023-02-18T15:12:44.963Z,1.67
2023-02-18T15:15:11.329Z,2.33
2023-02-18T15:17:43.984Z,2.00
2023-02-18T15:20:10.320Z,1.00
2023-02-18T15:22:42.956Z,5.00
2023-02-18T15:27:59.931Z,2.00
2023-02-18T15:30:26.326Z,2.33
2023-02-18T15:32:58.939Z,2.67
2023-02-18T15:35:25.287Z,4.00
2023-02-18T15:37:51.618Z,2.00
2023-02-18T15:43:18.975Z,3.50
2023-02-18T15:45:45.313Z,4.67
2023-02-18T15:48:17.933Z,1.67
2023-02-18T15:50:44.273Z,3.00
2023-02-18T15:53:10.589Z,4.67
2023-02-18T15:59:05.945Z,2.33
2023-02-18T16:01:32.391Z,4.67
2023-02-18T16:04:04.975Z,3.67
2023-02-18T16:06:31.337Z,3.00
2023-02-18T16:08:57.696Z,1.33
2023-02-18T16:11:30.968Z,2.33
2023-02-18T16:13:57.319Z,2.33
2023-02-18T16:16:29.974Z,3.00
2023-02-18T16:18:56.321Z,2.00
2023-02-18T16:21:28.971Z,2.33
2023-02-18T16:23:55.297Z,1.33
2023-02-18T16:26:27.959Z,2.00
2023-02-18T16:28:54.295Z,3.00
2023-02-18T16:31:27.032Z,1.33
2023-02-18T16:33:53.356Z,1.33
2023-02-18T16:36:25.975Z,6.33
2023-02-18T16:38:52.317Z,3.00
2023-02-18T16:44:19.413Z,1.00
2023-02-18T16:46:51.954Z,2.00
2023-02-18T16:49:18.270Z,1.00
2023-02-18T16:51:53.992Z,0.67
2023-02-18T16:54:20.296Z,1.00
2023-02-18T16:56:55.991Z,0.67
2023-02-18T16:59:22.279Z,0.33
2023-02-18T17:01:57.996Z,0.67
2023-02-18T17:04:24.364Z,1.00
2023-02-18T17:06:50.757Z,1.33
2023-02-18T17:09:23.990Z,2.00
2023-02-18T17:14:41.011Z,1.33
2023-02-18T17:17:07.370Z,2.67
2023-02-18T17:19:33.697Z,3.00
2023-02-18T17:22:07.005Z,3.00
2023-02-18T17:24:33.323Z,1.33
2023-02-18T17:30:00.080Z,2.00
2023-02-18T17:32:32.973Z,0.67
2023-02-18T17:35:02.091Z,0.67
2023-02-18T17:37:35.006Z,1.33
2023-02-18T17:40:01.341Z,1.33
2023-02-18T17:42:27.635Z,1.33
2023-02-18T17:44:59.988Z,1.33
2023-02-18T17:47:26.310Z,4.33
2023-02-18T17:49:59.009Z,1.67
2023-02-18T17:52:25.319Z,2.00
2023-02-18T17:54:51.663Z,1.33
2023-02-18T18:00:18.031Z,1.00
2023-02-18T18:02:54.018Z,0.67
2023-02-18T18:05:20.315Z,0.67
2023-02-18T18:07:48.077Z,0.00
2023-02-18T18:10:21.011Z,0.33
2023-02-18T18:15:40.006Z,1.00
2023-02-18T18:18:06.345Z,1.00
2023-02-18T18:20:42.019Z,0.67
2023-02-18T18:23:11.119Z,0.67
2023-02-18T18:25:44.034Z,1.67
2023-02-18T18:31:03.067Z,0.67
2023-02-18T18:33:29.391Z,1.00
2023-02-18T18:35:55.700Z,0.00
2023-02-18T18:38:28.040Z,0.00
2023-02-18T18:40:54.368Z,0.33
2023-02-18T18:46:21.171Z,2.00
2023-02-18T18:48:57.026Z,0.83
2023-02-18T18:51:26.338Z,0.50
2023-02-18T18:54:02.029Z,1.00
2023-02-18T18:56:31.114Z,0.67
2023-02-18T18:59:04.048Z,2.00
2023-02-18T19:01:33.205Z,0.50
2023-02-18T19:04:06.099Z,0.67
2023-02-18T19:06:35.270Z,0.17
2023-02-18T19:09:11.028Z,0.00
2023-02-18T19:11:40.131Z,0.67
2023-02-18T19:14:13.038Z,1.00
2023-02-18T19:16:42.138Z,0.67
2023-02-18T19:19:15.046Z,0.33
2023-02-18T19:21:44.141Z,1.00
2023-02-18T19:24:17.129Z,0.33
2023-02-18T19:26:43.427Z,0.33
2023-02-18T19:29:09.713Z,0.33
2023-02-18T19:31:45.210Z,1.50
2023-02-18T19:34:11.622Z,0.00
2023-02-18T19:36:44.061Z,0.00
2023-02-18T19:39:13.184Z,0.00
2023-02-18T19:41:49.038Z,0.17
2023-02-18T19:47:10.929Z,0.50
2023-02-18T19:49:37.248Z,0.00
2023-02-18T19:52:13.083Z,0.33
2023-02-18T19:54:42.181Z,1.00
2023-02-18T19:57:18.132Z,0.67
2023-02-18T19:59:44.448Z,2.00
2023-02-18T20:02:10.722Z,3.00
2023-02-18T20:04:44.150Z,14.00
2023-02-18T20:07:10.575Z,14.00
2023-02-18T20:09:43.077Z,22.00
2023-02-18T20:12:09.537Z,22.00
2023-02-18T20:17:37.082Z,27.50
2023-02-18T20:20:10.088Z,28.50
2023-02-18T20:22:37.495Z,23.67
2023-02-18T20:25:11.105Z,20.67
2023-02-18T20:27:41.244Z,31.50
2023-02-18T20:30:22.116Z,28.00
2023-02-18T20:32:48.609Z,21.00
2023-02-18T20:35:15.875Z,16.33
2023-02-18T20:37:49.078Z,17.00
2023-02-18T20:40:16.522Z,14.00
2023-02-18T20:48:40.089Z,8.83
2023-02-18T20:51:07.625Z,11.00
2023-02-18T20:53:41.072Z,8.50
2023-02-18T20:56:07.434Z,7.67
2023-02-18T20:58:40.086Z,7.67
2023-02-18T21:01:06.433Z,8.33
2023-02-18T21:03:32.816Z,5.00
2023-02-18T21:06:06.112Z,6.00
2023-02-18T21:08:32.469Z,6.33
2023-02-18T21:11:06.088Z,5.25
2023-02-18T21:13:32.414Z,6.00
2023-02-18T21:16:05.146Z,5.00
2023-02-18T21:18:31.546Z,6.33
2023-02-18T21:21:04.088Z,6.00
2023-02-18T21:23:30.424Z,5.00
2023-02-18T21:26:03.103Z,9.33
2023-02-18T21:28:29.420Z,6.67
2023-02-18T21:31:02.141Z,5.00
2023-02-18T21:33:28.556Z,9.67
2023-02-18T21:35:54.907Z,4.00
2023-02-18T21:38:28.105Z,4.33
2023-02-18T21:40:54.446Z,7.00
2023-02-18T21:43:27.102Z,4.00
2023-02-18T21:48:44.249Z,3.67
2023-02-18T21:51:10.882Z,3.00
2023-02-18T21:53:44.110Z,3.33
2023-02-18T21:56:10.465Z,3.67
2023-02-18T21:58:43.117Z,3.67
2023-02-18T22:04:00.110Z,3.00
2023-02-18T22:06:26.436Z,2.33
2023-02-18T22:08:59.132Z,2.67
2023-02-18T22:11:25.460Z,4.67
2023-02-18T22:13:58.080Z,2.33
2023-02-18T22:19:15.136Z,4.00
2023-02-18T22:21:41.502Z,4.67
2023-02-18T22:24:07.789Z,2.67
2023-02-18T22:26:40.140Z,2.33
2023-02-18T22:29:06.488Z,3.33
2023-02-18T22:34:33.128Z,2.00
2023-02-18T22:37:06.151Z,3.33
2023-02-18T22:39:32.502Z,4.00
2023-02-18T22:41:58.856Z,3.33
2023-02-18T22:44:32.109Z,5.00
2023-02-18T22:49:49.121Z,3.00
2023-02-18T22:52:15.456Z,3.00
2023-02-18T22:54:48.133Z,1.33
2023-02-18T22:57:14.478Z,1.33
2023-02-18T22:59:40.785Z,4.00
2023-02-18T23:05:07.145Z,3.00
2023-02-18T23:07:40.128Z,3.00
2023-02-18T23:10:06.462Z,4.00
2023-02-18T23:12:39.152Z,3.67
2023-02-18T23:15:05.472Z,2.00
2023-02-18T23:17:38.118Z,2.33
2023-02-18T23:20:04.434Z,2.33
2023-02-18T23:22:40.139Z,3.00
2023-02-18T23:25:06.487Z,2.33
2023-02-18T23:27:42.133Z,2.50
2023-02-18T23:30:08.491Z,2.67
2023-02-18T23:35:35.129Z,2.00
2023-02-18T23:38:08.154Z,3.00
2023-02-18T23:40:34.485Z,2.67
2023-02-18T23:43:00.791Z,3.00
2023-02-18T23:45:33.157Z,3.00
2023-02-18T23:48:02.264Z,0.50
2023-02-18T23:50:35.160Z,4.00
2023-02-18T23:53:01.460Z,2.33
2023-02-18T23:55:27.784Z,2.33
2023-02-18T23:58:00.155Z,2.33
